NOZ8KB ENGM-LPPR
Flight info
| Callsign | NOZ8KB |
|---|---|
| Flight time | N/A |
| Altitude | 36000 |
| Route | VIPPA DCT LINVI DCT UPGAS DCT TIPAN DCT EZTIM UM185 DIGSU DCT IBNID M195 LORKU DCT POZOF DCT LOTEE DCT ELTEP T328 ASPOR |
| Aircraft | B738/M-SDE2E3FGHIRWXY/LB1 |
Departure
| Time | 2026-05-06 18:41 |
|---|---|
| Airport | Oslo-Gardermoen International Airport (ENGM) |
Arrival
| Time | N/A |
|---|---|
| Airport | Francisco de Sá Carneiro Airport (LPPR) |
| Time | Latitude | Longitude | Altitude | Speed | Heading |
|---|---|---|---|---|---|
| 2026-05-06 18:15 | 60.19344 | 11.10268 | 679 ft | 0 kts | 16° |
| 2026-05-06 18:34 | 60.19342 | 11.10267 | 684 ft | 2 kts | 16° |
| 2026-05-06 18:34 | 60.19318 | 11.10255 | 683 ft | 4 kts | 352° |
| 2026-05-06 18:34 | 60.19299 | 11.10270 | 680 ft | 4 kts | 332° |
| 2026-05-06 18:35 | 60.19275 | 11.10295 | 682 ft | 4 kts | 332° |
| 2026-05-06 18:35 | 60.19252 | 11.10321 | 676 ft | 4 kts | 324° |
| 2026-05-06 18:35 | 60.19234 | 11.10357 | 677 ft | 3 kts | 290° |
| 2026-05-06 18:35 | 60.19232 | 11.10365 | 679 ft | 1 kts | 286° |
| 2026-05-06 18:37 | 60.19233 | 11.10363 | 679 ft | 1 kts | 292° |
| 2026-05-06 18:37 | 60.19256 | 11.10355 | 679 ft | 5 kts | 25° |
| 2026-05-06 18:37 | 60.19259 | 11.10470 | 681 ft | 13 kts | 104° |
| 2026-05-06 18:38 | 60.19226 | 11.10699 | 682 ft | 20 kts | 106° |
| 2026-05-06 18:38 | 60.19188 | 11.10963 | 678 ft | 19 kts | 106° |
| 2026-05-06 18:38 | 60.19211 | 11.11162 | 683 ft | 16 kts | 22° |
| 2026-05-06 18:38 | 60.19316 | 11.11222 | 683 ft | 16 kts | 15° |
| 2026-05-06 18:39 | 60.19430 | 11.11286 | 682 ft | 19 kts | 16° |
| 2026-05-06 18:39 | 60.19564 | 11.11364 | 680 ft | 21 kts | 16° |
| 2026-05-06 18:39 | 60.19704 | 11.11445 | 680 ft | 21 kts | 16° |
| 2026-05-06 18:40 | 60.19986 | 11.11608 | 685 ft | 22 kts | 16° |
| 2026-05-06 18:40 | 60.20086 | 11.11747 | 681 ft | 17 kts | 89° |
| 2026-05-06 18:40 | 60.20056 | 11.11966 | 686 ft | 16 kts | 106° |
| 2026-05-06 18:40 | 60.20000 | 11.12143 | 682 ft | 16 kts | 160° |
| 2026-05-06 18:41 | 60.19772 | 11.12048 | 685 ft | 66 kts | 196° |
| 2026-05-06 18:41 | 60.19103 | 11.11659 | 683 ft | 132 kts | 196° |
| 2026-05-06 18:41 | 60.18042 | 11.11055 | 773 ft | 177 kts | 195° |
| 2026-05-06 18:41 | 60.16815 | 11.10360 | 1382 ft | 190 kts | 198° |
| 2026-05-06 18:42 | 60.15515 | 11.09556 | 2087 ft | 199 kts | 199° |
| 2026-05-06 18:42 | 60.14148 | 11.09018 | 2796 ft | 202 kts | 188° |
| 2026-05-06 18:42 | 60.12713 | 11.08689 | 3262 ft | 214 kts | 189° |
| 2026-05-06 18:42 | 60.11159 | 11.08248 | 3513 ft | 236 kts | 191° |
| 2026-05-06 18:43 | 60.09463 | 11.07699 | 3850 ft | 255 kts | 190° |
| 2026-05-06 18:43 | 60.07673 | 11.07192 | 4585 ft | 262 kts | 189° |
| 2026-05-06 18:43 | 60.05870 | 11.06705 | 5531 ft | 262 kts | 192° |
| 2026-05-06 18:43 | 60.04115 | 11.05708 | 6382 ft | 264 kts | 201° |
| 2026-05-06 18:44 | 60.02387 | 11.04435 | 7245 ft | 265 kts | 202° |
| 2026-05-06 18:44 | 60.00657 | 11.03117 | 8103 ft | 267 kts | 202° |
| 2026-05-06 18:44 | 59.98914 | 11.01795 | 8935 ft | 269 kts | 202° |
| 2026-05-06 18:44 | 59.97159 | 11.00450 | 9823 ft | 270 kts | 206° |
| 2026-05-06 18:45 | 59.95534 | 10.98518 | 10401 ft | 279 kts | 217° |
| 2026-05-06 18:45 | 59.93903 | 10.96118 | 10592 ft | 303 kts | 219° |
| 2026-05-06 18:45 | 59.92176 | 10.93461 | 10832 ft | 323 kts | 219° |
| 2026-05-06 18:45 | 59.90374 | 10.90694 | 11440 ft | 330 kts | 219° |
| 2026-05-06 18:46 | 59.88547 | 10.87921 | 12265 ft | 330 kts | 220° |
| 2026-05-06 18:46 | 59.86736 | 10.85206 | 13109 ft | 331 kts | 220° |
| 2026-05-06 18:46 | 59.84886 | 10.82464 | 13873 ft | 333 kts | 220° |
| 2026-05-06 18:46 | 59.83022 | 10.79710 | 14565 ft | 335 kts | 220° |
| 2026-05-06 18:47 | 59.81143 | 10.76948 | 15276 ft | 337 kts | 220° |
| 2026-05-06 18:47 | 59.79255 | 10.74184 | 15996 ft | 338 kts | 220° |
| 2026-05-06 18:47 | 59.77356 | 10.71415 | 16696 ft | 340 kts | 220° |
| 2026-05-06 18:47 | 59.75440 | 10.68629 | 17365 ft | 341 kts | 220° |
| 2026-05-06 18:48 | 59.73516 | 10.65839 | 17991 ft | 345 kts | 220° |
| 2026-05-06 18:48 | 59.71551 | 10.62991 | 18393 ft | 353 kts | 220° |
| 2026-05-06 18:48 | 59.69561 | 10.60113 | 18974 ft | 355 kts | 220° |
| 2026-05-06 18:48 | 59.67564 | 10.57234 | 19554 ft | 355 kts | 220° |
| 2026-05-06 18:49 | 59.65585 | 10.54374 | 20113 ft | 357 kts | 220° |
| 2026-05-06 18:49 | 59.63566 | 10.51470 | 20666 ft | 360 kts | 220° |
| 2026-05-06 18:49 | 59.61535 | 10.48557 | 21237 ft | 362 kts | 220° |
| 2026-05-06 18:49 | 59.59493 | 10.45635 | 21887 ft | 361 kts | 220° |
| 2026-05-06 18:50 | 59.57453 | 10.42705 | 22415 ft | 364 kts | 221° |
| 2026-05-06 18:50 | 59.55385 | 10.39744 | 22865 ft | 368 kts | 220° |
| 2026-05-06 18:50 | 59.53305 | 10.36779 | 23377 ft | 370 kts | 220° |
| 2026-05-06 18:50 | 59.51209 | 10.33799 | 23822 ft | 372 kts | 220° |
| 2026-05-06 18:51 | 59.49109 | 10.30816 | 24271 ft | 373 kts | 220° |
| 2026-05-06 18:51 | 59.47029 | 10.27865 | 24607 ft | 376 kts | 220° |
| 2026-05-06 18:51 | 59.44890 | 10.24830 | 24873 ft | 381 kts | 220° |
| 2026-05-06 18:51 | 59.42740 | 10.21785 | 25353 ft | 380 kts | 220° |
| 2026-05-06 18:52 | 59.40596 | 10.18758 | 25829 ft | 380 kts | 220° |
| 2026-05-06 18:52 | 59.38443 | 10.15719 | 26216 ft | 382 kts | 220° |
| 2026-05-06 18:52 | 59.36279 | 10.12670 | 26581 ft | 384 kts | 220° |
| 2026-05-06 18:52 | 59.34104 | 10.09610 | 26964 ft | 385 kts | 220° |
| 2026-05-06 18:53 | 59.31920 | 10.06543 | 27337 ft | 386 kts | 220° |
| 2026-05-06 18:53 | 59.29732 | 10.03477 | 27726 ft | 387 kts | 220° |
| 2026-05-06 18:53 | 59.27567 | 10.00446 | 28078 ft | 388 kts | 220° |
| 2026-05-06 18:53 | 59.25366 | 9.97370 | 28426 ft | 390 kts | 220° |
| 2026-05-06 18:54 | 59.23157 | 9.94276 | 28745 ft | 391 kts | 220° |
| 2026-05-06 18:54 | 59.20931 | 9.91169 | 28907 ft | 396 kts | 219° |
| 2026-05-06 18:54 | 59.18672 | 9.88027 | 29060 ft | 400 kts | 219° |
| 2026-05-06 18:54 | 59.16400 | 9.84886 | 29388 ft | 401 kts | 219° |
| 2026-05-06 18:55 | 59.14124 | 9.81734 | 29819 ft | 399 kts | 219° |
| 2026-05-06 18:55 | 59.11853 | 9.78592 | 29921 ft | 403 kts | 219° |
| 2026-05-06 18:55 | 59.09599 | 9.75471 | 29964 ft | 402 kts | 219° |
| 2026-05-06 18:56 | 59.05058 | 9.69215 | 29949 ft | 396 kts | 219° |
| 2026-05-06 18:56 | 59.00552 | 9.63031 | 29972 ft | 397 kts | 219° |
| 2026-05-06 18:57 | 58.96030 | 9.56838 | 29916 ft | 398 kts | 219° |
| 2026-05-06 18:57 | 58.91489 | 9.50639 | 29965 ft | 400 kts | 219° |
| 2026-05-06 18:58 | 58.86912 | 9.44408 | 30032 ft | 406 kts | 219° |
| 2026-05-06 18:58 | 58.84597 | 9.41265 | 30333 ft | 406 kts | 219° |
| 2026-05-06 18:58 | 58.82288 | 9.38139 | 30700 ft | 404 kts | 219° |
| 2026-05-06 18:58 | 58.79997 | 9.35043 | 31090 ft | 401 kts | 219° |
| 2026-05-06 18:59 | 58.77715 | 9.31964 | 31442 ft | 400 kts | 219° |
| 2026-05-06 18:59 | 58.75460 | 9.28925 | 31715 ft | 400 kts | 219° |
| 2026-05-06 18:59 | 58.73180 | 9.25856 | 31987 ft | 400 kts | 219° |
| 2026-05-06 18:59 | 58.70899 | 9.22791 | 32313 ft | 399 kts | 219° |
| 2026-05-06 19:00 | 58.68618 | 9.19731 | 32525 ft | 400 kts | 218° |
| 2026-05-06 19:00 | 58.66329 | 9.16665 | 32732 ft | 401 kts | 218° |
| 2026-05-06 19:00 | 58.64042 | 9.13606 | 33043 ft | 400 kts | 218° |
| 2026-05-06 19:00 | 58.62530 | 9.11587 | 33280 ft | 399 kts | 218° |
| 2026-05-06 19:01 | 58.59484 | 9.07528 | 33680 ft | 398 kts | 218° |
| 2026-05-06 19:01 | 58.57207 | 9.04497 | 33909 ft | 399 kts | 218° |
| 2026-05-06 19:01 | 58.54924 | 9.01463 | 34124 ft | 399 kts | 218° |
| 2026-05-06 19:01 | 58.52638 | 8.98431 | 34294 ft | 400 kts | 218° |
| 2026-05-06 19:02 | 58.50348 | 8.95398 | 34434 ft | 401 kts | 218° |
| 2026-05-06 19:02 | 58.48076 | 8.92393 | 34606 ft | 402 kts | 218° |
| 2026-05-06 19:02 | 58.45740 | 8.89309 | 34782 ft | 403 kts | 218° |
| 2026-05-06 19:02 | 58.43459 | 8.86303 | 34927 ft | 404 kts | 218° |
| 2026-05-06 19:03 | 58.41137 | 8.83247 | 35059 ft | 406 kts | 218° |
| 2026-05-06 19:03 | 58.38807 | 8.80186 | 35175 ft | 408 kts | 218° |
| 2026-05-06 19:03 | 58.36464 | 8.77114 | 35333 ft | 409 kts | 218° |
| 2026-05-06 19:03 | 58.34119 | 8.74045 | 35509 ft | 409 kts | 218° |
| 2026-05-06 19:04 | 58.31774 | 8.70980 | 35667 ft | 410 kts | 218° |
| 2026-05-06 19:04 | 58.29416 | 8.67902 | 35799 ft | 412 kts | 218° |
| 2026-05-06 19:04 | 58.27050 | 8.64821 | 35904 ft | 413 kts | 218° |
| 2026-05-06 19:05 | 58.22271 | 8.58608 | 35971 ft | 419 kts | 218° |
| 2026-05-06 19:05 | 58.17430 | 8.52335 | 35956 ft | 424 kts | 217° |
| 2026-05-06 19:06 | 58.12534 | 8.46017 | 35974 ft | 427 kts | 217° |
| 2026-05-06 19:06 | 58.07641 | 8.39724 | 35970 ft | 429 kts | 217° |
| 2026-05-06 19:07 | 58.02703 | 8.33395 | 35971 ft | 429 kts | 217° |
| 2026-05-06 19:07 | 57.97758 | 8.27077 | 35970 ft | 428 kts | 217° |
| 2026-05-06 19:08 | 57.92830 | 8.20802 | 35943 ft | 427 kts | 217° |
| 2026-05-06 19:08 | 57.87910 | 8.14559 | 35967 ft | 426 kts | 217° |
| 2026-05-06 19:09 | 57.82994 | 8.08340 | 35977 ft | 425 kts | 217° |
| 2026-05-06 19:09 | 57.78122 | 8.02198 | 35980 ft | 424 kts | 217° |
| 2026-05-06 19:10 | 57.73214 | 7.96030 | 35979 ft | 424 kts | 217° |
| 2026-05-06 19:10 | 57.68313 | 7.89892 | 35979 ft | 424 kts | 217° |
| 2026-05-06 19:11 | 57.63418 | 7.83781 | 35973 ft | 423 kts | 217° |
| 2026-05-06 19:11 | 57.58513 | 7.77678 | 35979 ft | 423 kts | 217° |
| 2026-05-06 19:12 | 57.53603 | 7.71589 | 35988 ft | 424 kts | 217° |
| 2026-05-06 19:12 | 57.48679 | 7.65504 | 35993 ft | 425 kts | 217° |
| 2026-05-06 19:13 | 57.43778 | 7.59466 | 35996 ft | 425 kts | 217° |
| 2026-05-06 19:13 | 57.38840 | 7.53403 | 35991 ft | 425 kts | 216° |
| 2026-05-06 19:14 | 57.33887 | 7.47341 | 36000 ft | 426 kts | 216° |
| 2026-05-06 19:14 | 57.28935 | 7.41300 | 36000 ft | 427 kts | 216° |
| 2026-05-06 19:15 | 57.24812 | 7.36286 | 36010 ft | 427 kts | 216° |
| 2026-05-06 19:15 | 57.19843 | 7.30261 | 36011 ft | 427 kts | 216° |
| 2026-05-06 19:16 | 57.14068 | 7.23284 | 36009 ft | 426 kts | 216° |
| 2026-05-06 19:16 | 57.09904 | 7.18268 | 36006 ft | 427 kts | 216° |
| 2026-05-06 19:17 | 57.04967 | 7.12341 | 36018 ft | 427 kts | 216° |
| 2026-05-06 19:17 | 56.99988 | 7.06381 | 36025 ft | 427 kts | 216° |
| 2026-05-06 19:18 | 56.95001 | 7.00431 | 36024 ft | 428 kts | 216° |
| 2026-05-06 19:18 | 56.90008 | 6.94493 | 36005 ft | 428 kts | 216° |
| 2026-05-06 19:19 | 56.85003 | 6.88561 | 36021 ft | 429 kts | 216° |
| 2026-05-06 19:19 | 56.79989 | 6.82638 | 36021 ft | 429 kts | 216° |
| 2026-05-06 19:20 | 56.74995 | 6.76756 | 36027 ft | 430 kts | 216° |
| 2026-05-06 19:20 | 56.69964 | 6.70851 | 36027 ft | 430 kts | 216° |
| 2026-05-06 19:21 | 56.64923 | 6.64953 | 36009 ft | 430 kts | 215° |
| 2026-05-06 19:21 | 56.59886 | 6.59079 | 36020 ft | 430 kts | 215° |
| 2026-05-06 19:22 | 56.54851 | 6.53225 | 36032 ft | 429 kts | 215° |
| 2026-05-06 19:22 | 56.49810 | 6.47383 | 36036 ft | 429 kts | 215° |
| 2026-05-06 19:23 | 56.44807 | 6.41604 | 36039 ft | 429 kts | 215° |
| 2026-05-06 19:23 | 56.39767 | 6.35800 | 36020 ft | 429 kts | 215° |
| 2026-05-06 19:24 | 56.34732 | 6.30021 | 36028 ft | 429 kts | 215° |
| 2026-05-06 19:24 | 56.29684 | 6.24244 | 36043 ft | 429 kts | 215° |
| 2026-05-06 19:25 | 56.24633 | 6.18483 | 36037 ft | 430 kts | 215° |
| 2026-05-06 19:25 | 56.19597 | 6.12758 | 36043 ft | 431 kts | 215° |
| 2026-05-06 19:26 | 56.14522 | 6.07005 | 36024 ft | 432 kts | 214° |
| 2026-05-06 19:26 | 56.09428 | 6.01250 | 36040 ft | 432 kts | 214° |
| 2026-05-06 19:27 | 56.04335 | 5.95515 | 36039 ft | 432 kts | 214° |
| 2026-05-06 19:27 | 55.99272 | 5.89831 | 36047 ft | 432 kts | 214° |
| 2026-05-06 19:28 | 55.94174 | 5.84126 | 36046 ft | 432 kts | 214° |
| 2026-05-06 19:28 | 55.89080 | 5.78442 | 36044 ft | 432 kts | 214° |
| 2026-05-06 19:29 | 55.83983 | 5.72774 | 36040 ft | 432 kts | 214° |
| 2026-05-06 19:29 | 55.78877 | 5.67113 | 36046 ft | 432 kts | 214° |
| 2026-05-06 19:30 | 55.73797 | 5.61499 | 36047 ft | 432 kts | 214° |
| 2026-05-06 19:30 | 55.68690 | 5.55872 | 36041 ft | 432 kts | 214° |
| 2026-05-06 19:31 | 55.63575 | 5.50253 | 36037 ft | 433 kts | 214° |
| 2026-05-06 19:31 | 55.55881 | 5.41836 | 36043 ft | 434 kts | 214° |
| 2026-05-06 19:32 | 55.50740 | 5.36233 | 36043 ft | 434 kts | 214° |
| 2026-05-06 19:32 | 55.45622 | 5.30673 | 36037 ft | 435 kts | 214° |
| 2026-05-06 19:33 | 55.40461 | 5.25083 | 36018 ft | 435 kts | 214° |
| 2026-05-06 19:33 | 55.35302 | 5.19512 | 36032 ft | 435 kts | 214° |
| 2026-05-06 19:34 | 55.30142 | 5.13959 | 36041 ft | 434 kts | 214° |
| 2026-05-06 19:34 | 55.24983 | 5.08422 | 36038 ft | 434 kts | 214° |
| 2026-05-06 19:35 | 55.19825 | 5.02904 | 36041 ft | 434 kts | 214° |
| 2026-05-06 19:35 | 55.14664 | 4.97400 | 36025 ft | 434 kts | 213° |
| 2026-05-06 19:36 | 55.09503 | 4.91912 | 36033 ft | 434 kts | 213° |
| 2026-05-06 19:36 | 55.04383 | 4.86485 | 36036 ft | 434 kts | 213° |
| 2026-05-06 19:37 | 54.99219 | 4.81028 | 36036 ft | 434 kts | 213° |
| 2026-05-06 19:37 | 54.94053 | 4.75585 | 36023 ft | 434 kts | 213° |
| 2026-05-06 19:38 | 54.88878 | 4.70149 | 36008 ft | 434 kts | 213° |
| 2026-05-06 19:38 | 54.83707 | 4.64734 | 36018 ft | 434 kts | 213° |
| 2026-05-06 19:39 | 54.78534 | 4.59332 | 36020 ft | 434 kts | 213° |
| 2026-05-06 19:39 | 54.73354 | 4.53939 | 36028 ft | 434 kts | 213° |
| 2026-05-06 19:40 | 54.68169 | 4.48556 | 36017 ft | 434 kts | 213° |
| 2026-05-06 19:40 | 54.62975 | 4.43180 | 36019 ft | 434 kts | 213° |
| 2026-05-06 19:41 | 54.58051 | 4.37338 | 36022 ft | 432 kts | 224° |
| 2026-05-06 19:41 | 54.53661 | 4.30277 | 36026 ft | 432 kts | 224° |
| 2026-05-06 19:42 | 54.49255 | 4.23214 | 36036 ft | 433 kts | 224° |
| 2026-05-06 19:42 | 54.44825 | 4.16186 | 36033 ft | 433 kts | 224° |
| 2026-05-06 19:43 | 54.40378 | 4.09181 | 36012 ft | 433 kts | 224° |
| 2026-05-06 19:43 | 54.35928 | 4.02198 | 36040 ft | 434 kts | 224° |
| 2026-05-06 19:44 | 54.31465 | 3.95216 | 36039 ft | 434 kts | 224° |
| 2026-05-06 19:44 | 54.26994 | 3.88243 | 36037 ft | 434 kts | 224° |
| 2026-05-06 19:45 | 54.22555 | 3.81340 | 36043 ft | 434 kts | 224° |
| 2026-05-06 19:45 | 54.18071 | 3.74388 | 36017 ft | 435 kts | 224° |
| 2026-05-06 19:46 | 54.13586 | 3.67456 | 36035 ft | 435 kts | 224° |
| 2026-05-06 19:46 | 54.09086 | 3.60522 | 36035 ft | 435 kts | 224° |
| 2026-05-06 19:47 | 54.04618 | 3.53657 | 36039 ft | 436 kts | 223° |
| 2026-05-06 19:47 | 54.00105 | 3.46744 | 36038 ft | 436 kts | 223° |
| 2026-05-06 19:48 | 53.95581 | 3.39836 | 36033 ft | 437 kts | 223° |
| 2026-05-06 19:48 | 53.91058 | 3.32951 | 36033 ft | 437 kts | 223° |
| 2026-05-06 19:49 | 53.86532 | 3.26082 | 36033 ft | 437 kts | 223° |
| 2026-05-06 19:49 | 53.82022 | 3.19257 | 36032 ft | 437 kts | 223° |
| 2026-05-06 19:50 | 53.77482 | 3.12409 | 36031 ft | 437 kts | 223° |
| 2026-05-06 19:50 | 53.72931 | 3.05565 | 36025 ft | 438 kts | 223° |
| 2026-05-06 19:51 | 53.68371 | 2.98726 | 36007 ft | 438 kts | 223° |
| 2026-05-06 19:51 | 53.63840 | 2.91952 | 36019 ft | 438 kts | 223° |
| 2026-05-06 19:52 | 53.59268 | 2.85137 | 36024 ft | 438 kts | 223° |
| 2026-05-06 19:52 | 53.54689 | 2.78332 | 36025 ft | 439 kts | 223° |
| 2026-05-06 19:53 | 53.50111 | 2.71547 | 36021 ft | 439 kts | 223° |
| 2026-05-06 19:53 | 53.45543 | 2.64795 | 36025 ft | 439 kts | 223° |
| 2026-05-06 19:54 | 53.40953 | 2.58034 | 36025 ft | 439 kts | 223° |
| 2026-05-06 19:54 | 53.36347 | 2.51309 | 36024 ft | 440 kts | 223° |
| 2026-05-06 19:55 | 53.31728 | 2.44597 | 36029 ft | 440 kts | 223° |
| 2026-05-06 19:55 | 53.27101 | 2.37882 | 36027 ft | 440 kts | 223° |
| 2026-05-06 19:56 | 53.22473 | 2.31186 | 36013 ft | 440 kts | 222° |
| 2026-05-06 19:56 | 53.17842 | 2.24493 | 36030 ft | 440 kts | 222° |
| 2026-05-06 19:57 | 53.13208 | 2.17806 | 36026 ft | 440 kts | 222° |
| 2026-05-06 19:57 | 53.08575 | 2.11138 | 36027 ft | 440 kts | 222° |
| 2026-05-06 19:58 | 53.03964 | 2.04522 | 36029 ft | 440 kts | 222° |
| 2026-05-06 19:58 | 52.99320 | 1.97876 | 36022 ft | 441 kts | 222° |
| 2026-05-06 19:59 | 52.94663 | 1.91234 | 36025 ft | 441 kts | 222° |
| 2026-05-06 19:59 | 52.90002 | 1.84605 | 36028 ft | 441 kts | 222° |
| 2026-05-06 20:00 | 52.85337 | 1.77990 | 36034 ft | 441 kts | 222° |
| 2026-05-06 20:00 | 52.80700 | 1.71433 | 36032 ft | 442 kts | 222° |
| 2026-05-06 20:01 | 52.76021 | 1.64835 | 36029 ft | 442 kts | 222° |
| 2026-05-06 20:01 | 52.71339 | 1.58254 | 36038 ft | 442 kts | 222° |
| 2026-05-06 20:02 | 52.66655 | 1.51689 | 36046 ft | 442 kts | 221° |
| 2026-05-06 20:02 | 52.61963 | 1.45132 | 36048 ft | 443 kts | 222° |
| 2026-05-06 20:03 | 52.58059 | 1.39690 | 36047 ft | 443 kts | 222° |
| 2026-05-06 20:03 | 52.53345 | 1.33137 | 36044 ft | 443 kts | 221° |
| 2026-05-06 20:04 | 52.48627 | 1.26597 | 36035 ft | 444 kts | 221° |
| 2026-05-06 20:04 | 52.43908 | 1.20076 | 36033 ft | 444 kts | 221° |
| 2026-05-06 20:05 | 52.39181 | 1.13562 | 36020 ft | 444 kts | 221° |
| 2026-05-06 20:05 | 52.34452 | 1.07064 | 36018 ft | 444 kts | 221° |
| 2026-05-06 20:06 | 52.29716 | 1.00575 | 36020 ft | 444 kts | 221° |
| 2026-05-06 20:06 | 52.24975 | 0.94098 | 36013 ft | 444 kts | 221° |
| 2026-05-06 20:07 | 52.20257 | 0.87669 | 36022 ft | 444 kts | 221° |
| 2026-05-06 20:07 | 52.15508 | 0.81217 | 36014 ft | 445 kts | 221° |
| 2026-05-06 20:08 | 52.10737 | 0.74754 | 36015 ft | 445 kts | 221° |
| 2026-05-06 20:08 | 52.05965 | 0.68306 | 36007 ft | 446 kts | 221° |
| 2026-05-06 20:09 | 52.01282 | 0.61814 | 36004 ft | 445 kts | 226° |
| 2026-05-06 20:09 | 51.96972 | 0.54583 | 36012 ft | 445 kts | 228° |
| 2026-05-06 20:10 | 51.92740 | 0.47250 | 36020 ft | 445 kts | 228° |
| 2026-05-06 20:10 | 51.88473 | 0.39950 | 36022 ft | 446 kts | 227° |
| 2026-05-06 20:11 | 51.84177 | 0.32695 | 36020 ft | 446 kts | 227° |
| 2026-05-06 20:11 | 51.79872 | 0.25469 | 36008 ft | 446 kts | 227° |
| 2026-05-06 20:12 | 51.75555 | 0.18251 | 36020 ft | 446 kts | 227° |
| 2026-05-06 20:12 | 51.71268 | 0.11101 | 36016 ft | 446 kts | 227° |
| 2026-05-06 20:13 | 51.66938 | 0.03898 | 36019 ft | 447 kts | 227° |
| 2026-05-06 20:13 | 51.62608 | -0.03284 | 36035 ft | 447 kts | 227° |
| 2026-05-06 20:14 | 51.58270 | -0.10459 | 36040 ft | 447 kts | 227° |
| 2026-05-06 20:14 | 51.53931 | -0.17610 | 36018 ft | 447 kts | 226° |
| 2026-05-06 20:15 | 51.49365 | -0.24406 | 36021 ft | 447 kts | 223° |
| 2026-05-06 20:15 | 51.44671 | -0.30975 | 36021 ft | 447 kts | 222° |
| 2026-05-06 20:16 | 51.40018 | -0.37507 | 36021 ft | 447 kts | 223° |
| 2026-05-06 20:16 | 51.35351 | -0.44115 | 36019 ft | 447 kts | 223° |
| 2026-05-06 20:17 | 51.30692 | -0.50725 | 36008 ft | 447 kts | 223° |
| 2026-05-06 20:17 | 51.26026 | -0.57331 | 36020 ft | 447 kts | 223° |
| 2026-05-06 20:18 | 51.21358 | -0.63921 | 36019 ft | 447 kts | 223° |
| 2026-05-06 20:18 | 51.16720 | -0.70449 | 36020 ft | 448 kts | 223° |
| 2026-05-06 20:19 | 51.12044 | -0.77010 | 36018 ft | 448 kts | 223° |
| 2026-05-06 20:19 | 51.07366 | -0.83556 | 36008 ft | 448 kts | 223° |
| 2026-05-06 20:20 | 51.02673 | -0.90105 | 36011 ft | 448 kts | 223° |
| 2026-05-06 20:20 | 50.97980 | -0.96636 | 36007 ft | 448 kts | 223° |
| 2026-05-06 20:21 | 50.93309 | -1.03117 | 36013 ft | 448 kts | 223° |
| 2026-05-06 20:21 | 50.88621 | -1.09606 | 36009 ft | 448 kts | 222° |
| 2026-05-06 20:22 | 50.83916 | -1.16098 | 36011 ft | 448 kts | 222° |
| 2026-05-06 20:22 | 50.79207 | -1.22579 | 36070 ft | 450 kts | 222° |
| 2026-05-06 20:23 | 50.76838 | -1.25832 | 36238 ft | 450 kts | 222° |
| 2026-05-06 20:23 | 50.74471 | -1.29078 | 36454 ft | 450 kts | 222° |
| 2026-05-06 20:23 | 50.72107 | -1.32315 | 36663 ft | 449 kts | 222° |
| 2026-05-06 20:23 | 50.69747 | -1.35542 | 36831 ft | 450 kts | 222° |
| 2026-05-06 20:24 | 50.67379 | -1.38776 | 36981 ft | 450 kts | 222° |
| 2026-05-06 20:24 | 50.65007 | -1.42012 | 37149 ft | 451 kts | 222° |
| 2026-05-06 20:24 | 50.62631 | -1.45247 | 37300 ft | 451 kts | 222° |
| 2026-05-06 20:24 | 50.60286 | -1.48437 | 37440 ft | 452 kts | 222° |
| 2026-05-06 20:25 | 50.57899 | -1.51679 | 37598 ft | 452 kts | 222° |
| 2026-05-06 20:25 | 50.55517 | -1.54909 | 37777 ft | 452 kts | 222° |
| 2026-05-06 20:25 | 50.53131 | -1.58141 | 37928 ft | 452 kts | 222° |
| 2026-05-06 20:25 | 50.50749 | -1.61362 | 37993 ft | 453 kts | 222° |
| 2026-05-06 20:26 | 50.45957 | -1.67830 | 38000 ft | 454 kts | 222° |
| 2026-05-06 20:26 | 50.41155 | -1.74293 | 37997 ft | 453 kts | 222° |
| 2026-05-06 20:27 | 50.36364 | -1.80723 | 38000 ft | 453 kts | 221° |
| 2026-05-06 20:27 | 50.31600 | -1.87100 | 38004 ft | 453 kts | 221° |
| 2026-05-06 20:28 | 50.26806 | -1.93500 | 38007 ft | 453 kts | 221° |
| 2026-05-06 20:28 | 50.22011 | -1.99884 | 38008 ft | 453 kts | 221° |
| 2026-05-06 20:29 | 50.17209 | -2.06259 | 38002 ft | 453 kts | 221° |
| 2026-05-06 20:29 | 50.12410 | -2.12614 | 38010 ft | 453 kts | 221° |
| 2026-05-06 20:30 | 50.05228 | -2.22092 | 38012 ft | 453 kts | 221° |
| 2026-05-06 20:31 | 50.00407 | -2.28435 | 38014 ft | 453 kts | 221° |
| 2026-05-06 20:31 | 49.95588 | -2.34752 | 38011 ft | 453 kts | 220° |
| 2026-05-06 20:32 | 49.90229 | -2.39819 | 38023 ft | 456 kts | 206° |
| 2026-05-06 20:32 | 49.84420 | -2.43793 | 38012 ft | 457 kts | 205° |
| 2026-05-06 20:33 | 49.78590 | -2.47758 | 38010 ft | 457 kts | 205° |
| 2026-05-06 20:33 | 49.72778 | -2.51761 | 38011 ft | 457 kts | 205° |
| 2026-05-06 20:34 | 49.66962 | -2.55791 | 38005 ft | 457 kts | 205° |
| 2026-05-06 20:34 | 49.61155 | -2.59812 | 38018 ft | 458 kts | 205° |
| 2026-05-06 20:35 | 49.55340 | -2.63827 | 38019 ft | 458 kts | 205° |
| 2026-05-06 20:35 | 49.49550 | -2.67814 | 38021 ft | 458 kts | 205° |
| 2026-05-06 20:36 | 49.43731 | -2.71810 | 38021 ft | 458 kts | 205° |
| 2026-05-06 20:36 | 49.37914 | -2.75793 | 38022 ft | 458 kts | 205° |
| 2026-05-06 20:37 | 49.32094 | -2.79768 | 38020 ft | 458 kts | 205° |
| 2026-05-06 20:37 | 49.26277 | -2.83730 | 38001 ft | 458 kts | 205° |
| 2026-05-06 20:38 | 49.20454 | -2.87687 | 38007 ft | 457 kts | 205° |
| 2026-05-06 20:38 | 49.14631 | -2.91633 | 38005 ft | 458 kts | 205° |
| 2026-05-06 20:39 | 49.08809 | -2.95570 | 38009 ft | 458 kts | 205° |
| 2026-05-06 20:39 | 49.03017 | -2.99474 | 37997 ft | 457 kts | 205° |
| 2026-05-06 20:40 | 48.97197 | -3.03389 | 38007 ft | 457 kts | 205° |
| 2026-05-06 20:40 | 48.91372 | -3.07296 | 38005 ft | 457 kts | 205° |
| 2026-05-06 20:41 | 48.85545 | -3.11195 | 38009 ft | 457 kts | 205° |
| 2026-05-06 20:41 | 48.79718 | -3.15084 | 38016 ft | 457 kts | 205° |
| 2026-05-06 20:42 | 48.73887 | -3.18965 | 38016 ft | 458 kts | 205° |
| 2026-05-06 20:42 | 48.68087 | -3.22817 | 38017 ft | 458 kts | 205° |
| 2026-05-06 20:43 | 48.62252 | -3.26681 | 38015 ft | 458 kts | 205° |
| 2026-05-06 20:43 | 48.56412 | -3.30539 | 38009 ft | 458 kts | 205° |
| 2026-05-06 20:44 | 48.50568 | -3.34391 | 38002 ft | 458 kts | 205° |
| 2026-05-06 20:44 | 48.44732 | -3.38227 | 38001 ft | 458 kts | 205° |
| 2026-05-06 20:45 | 48.38887 | -3.42059 | 38002 ft | 458 kts | 205° |
| 2026-05-06 20:45 | 48.33089 | -3.45851 | 38000 ft | 457 kts | 205° |
| 2026-05-06 20:46 | 48.27243 | -3.49665 | 38002 ft | 457 kts | 205° |
| 2026-05-06 20:46 | 48.21402 | -3.53466 | 37995 ft | 457 kts | 205° |
| 2026-05-06 20:47 | 48.15555 | -3.57261 | 37984 ft | 457 kts | 205° |
| 2026-05-06 20:47 | 48.09745 | -3.61024 | 37992 ft | 457 kts | 205° |
| 2026-05-06 20:48 | 48.03900 | -3.64799 | 38001 ft | 457 kts | 205° |
| 2026-05-06 20:48 | 47.98054 | -3.68566 | 37993 ft | 457 kts | 205° |